sensor_id;sensor_type;location;lat;lon;timestamp;pressure;altitude;pressure_sealevel;temperature;humidity
46045;BME280;31781;54.094;13.428;2022-08-03T00:03:38;101713.44;;;22.21;45.68
46045;BME280;31781;54.094;13.428;2022-08-03T00:08:41;101718.72;;;22.23;43.61
46045;BME280;31781;54.094;13.428;2022-08-03T00:13:44;101714.03;;;22.23;44.16
46045;BME280;31781;54.094;13.428;2022-08-03T00:18:52;101702.94;;;22.23;42.80
46045;BME280;31781;54.094;13.428;2022-08-03T00:23:55;101703.78;;;22.24;41.63
46045;BME280;31781;54.094;13.428;2022-08-03T00:28:58;101691.25;;;22.21;42.50
46045;BME280;31781;54.094;13.428;2022-08-03T00:34:06;101686.00;;;22.20;42.09
46045;BME280;31781;54.094;13.428;2022-08-03T00:39:08;101679.62;;;22.19;42.15
46045;BME280;31781;54.094;13.428;2022-08-03T00:44:11;101673.47;;;22.17;42.27
46045;BME280;31781;54.094;13.428;2022-08-03T00:49:19;101677.91;;;22.13;42.41
46045;BME280;31781;54.094;13.428;2022-08-03T00:54:23;101679.78;;;22.08;41.79
46045;BME280;31781;54.094;13.428;2022-08-03T00:59:26;101674.47;;;22.06;41.29
46045;BME280;31781;54.094;13.428;2022-08-03T01:04:34;101664.25;;;22.07;41.31
46045;BME280;31781;54.094;13.428;2022-08-03T01:09:46;101656.50;;;22.09;41.46
46045;BME280;31781;54.094;13.428;2022-08-03T01:14:58;101650.44;;;22.12;41.08
46045;BME280;31781;54.094;13.428;2022-08-03T01:20:12;101654.91;;;22.13;40.74
46045;BME280;31781;54.094;13.428;2022-08-03T01:25:27;101657.97;;;22.16;41.17
46045;BME280;31781;54.094;13.428;2022-08-03T01:30:42;101644.94;;;22.17;40.96
46045;BME280;31781;54.094;13.428;2022-08-03T01:35:49;101647.44;;;22.18;41.21
46045;BME280;31781;54.094;13.428;2022-08-03T01:40:55;101650.22;;;22.18;41.02
46045;BME280;31781;54.094;13.428;2022-08-03T01:46:06;101647.44;;;22.18;41.32
46045;BME280;31781;54.094;13.428;2022-08-03T01:51:11;101649.38;;;22.18;43.24
46045;BME280;31781;54.094;13.428;2022-08-03T01:56:15;101640.44;;;22.11;44.32
46045;BME280;31781;54.094;13.428;2022-08-03T02:01:26;101641.22;;;22.06;42.90
46045;BME280;31781;54.094;13.428;2022-08-03T02:06:51;101637.66;;;22.06;42.41
46045;BME280;31781;54.094;13.428;2022-08-03T02:12:06;101632.59;;;22.03;42.57
46045;BME280;31781;54.094;13.428;2022-08-03T02:17:15;101631.50;;;22.04;42.13
46045;BME280;31781;54.094;13.428;2022-08-03T02:22:34;101629.59;;;22.04;41.86
46045;BME280;31781;54.094;13.428;2022-08-03T02:27:42;101619.59;;;22.03;42.08
46045;BME280;31781;54.094;13.428;2022-08-03T02:32:54;101625.97;;;22.04;42.09
46045;BME280;31781;54.094;13.428;2022-08-03T02:38:00;101616.81;;;22.03;41.97
46045;BME280;31781;54.094;13.428;2022-08-03T02:43:07;101614.03;;;22.03;42.08
46045;BME280;31781;54.094;13.428;2022-08-03T02:48:28;101608.59;;;22.13;41.95
46045;BME280;31781;54.094;13.428;2022-08-03T02:53:33;101615.19;;;22.07;42.18
46045;BME280;31781;54.094;13.428;2022-08-03T02:58:38;101607.16;;;22.06;42.42
46045;BME280;31781;54.094;13.428;2022-08-03T03:03:48;101620.75;;;22.07;42.55
46045;BME280;31781;54.094;13.428;2022-08-03T03:14:10;101610.53;;;22.13;42.78
46045;BME280;31781;54.094;13.428;2022-08-03T03:19:15;101607.41;;;22.04;42.92
46045;BME280;31781;54.094;13.428;2022-08-03T03:24:19;101608.50;;;22.03;43.13
46045;BME280;31781;54.094;13.428;2022-08-03T03:29:28;101609.87;;;22.01;43.27
46045;BME280;31781;54.094;13.428;2022-08-03T03:34:40;101612.41;;;22.02;43.14
46045;BME280;31781;54.094;13.428;2022-08-03T03:39:44;101614.34;;;22.02;43.49
46045;BME280;31781;54.094;13.428;2022-08-03T03:44:52;101605.72;;;22.03;43.36
46045;BME280;31781;54.094;13.428;2022-08-03T03:49:56;101612.41;;;22.02;43.09
46045;BME280;31781;54.094;13.428;2022-08-03T03:54:59;101604.91;;;22.03;43.75
46045;BME280;31781;54.094;13.428;2022-08-03T04:00:08;101605.72;;;22.03;43.85
46045;BME280;31781;54.094;13.428;2022-08-03T04:05:12;101610.19;;;22.04;43.45
46045;BME280;31781;54.094;13.428;2022-08-03T04:10:18;101602.97;;;22.03;44.00
46045;BME280;31781;54.094;13.428;2022-08-03T04:15:30;101615.16;;;22.02;44.00
46045;BME280;31781;54.094;13.428;2022-08-03T04:20:36;101614.88;;;22.04;43.63
46045;BME280;31781;54.094;13.428;2022-08-03T04:25:41;101615.16;;;22.02;44.00
46045;BME280;31781;54.094;13.428;2022-08-03T04:30:51;101614.88;;;22.04;44.05
46045;BME280;31781;54.094;13.428;2022-08-03T04:35:57;101620.19;;;22.05;43.81
46045;BME280;31781;54.094;13.428;2022-08-03T04:41:03;101616.03;;;22.08;44.23
46045;BME280;31781;54.094;13.428;2022-08-03T04:51:32;101606.75;;;22.24;43.54
46045;BME280;31781;54.094;13.428;2022-08-03T04:56:35;101609.47;;;22.19;43.87
46045;BME280;31781;54.094;13.428;2022-08-03T05:01:38;101621.13;;;22.21;44.43
46045;BME280;31781;54.094;13.428;2022-08-03T05:06:47;101616.16;;;22.23;44.39
46045;BME280;31781;54.094;13.428;2022-08-03T05:11:55;101629.19;;;22.22;43.90
46045;BME280;31781;54.094;13.428;2022-08-03T05:16:58;101629.19;;;22.22;44.27
46045;BME280;31781;54.094;13.428;2022-08-03T05:22:06;101633.09;;;22.26;44.64
46045;BME280;31781;54.094;13.428;2022-08-03T05:27:09;101633.16;;;22.37;44.18
46045;BME280;31781;54.094;13.428;2022-08-03T05:32:12;101629.13;;;22.49;44.90
46045;BME280;31781;54.094;13.428;2022-08-03T05:37:20;101632.00;;;22.64;44.88
46045;BME280;31781;54.094;13.428;2022-08-03T05:42:23;101623.50;;;22.81;44.25
46045;BME280;31781;54.094;13.428;2022-08-03T05:47:25;101619.44;;;22.99;44.54
46045;BME280;31781;54.094;13.428;2022-08-03T05:52:33;101621.22;;;23.20;43.82
46045;BME280;31781;54.094;13.428;2022-08-03T05:57:37;101627.91;;;23.39;43.60
46045;BME280;31781;54.094;13.428;2022-08-03T06:02:40;101625.81;;;23.56;43.64
46045;BME280;31781;54.094;13.428;2022-08-03T06:07:48;101627.50;;;23.77;43.51
46045;BME280;31781;54.094;13.428;2022-08-03T06:12:51;101629.19;;;23.99;43.26
46045;BME280;31781;54.094;13.428;2022-08-03T06:17:54;101619.50;;;24.21;43.17
46045;BME280;31781;54.094;13.428;2022-08-03T06:23:07;101622.53;;;24.45;43.11
46045;BME280;31781;54.094;13.428;2022-08-03T06:28:18;101628.59;;;24.72;42.43
46045;BME280;31781;54.094;13.428;2022-08-03T06:33:40;101629.38;;;24.98;41.55
46045;BME280;31781;54.094;13.428;2022-08-03T06:39:08;101619.25;;;25.28;40.76
46045;BME280;31781;54.094;13.428;2022-08-03T06:44:11;101617.16;;;25.58;40.94
46045;BME280;31781;54.094;13.428;2022-08-03T06:49:30;101617.47;;;25.96;40.95
46045;BME280;31781;54.094;13.428;2022-08-03T06:54:34;101627.91;;;26.19;40.33
46045;BME280;31781;54.094;13.428;2022-08-03T06:59:37;101623.19;;;26.48;39.69
46045;BME280;31781;54.094;13.428;2022-08-03T07:05:06;101618.62;;;26.81;38.51
46045;BME280;31781;54.094;13.428;2022-08-03T07:10:09;101614.62;;;27.16;39.14
46045;BME280;31781;54.094;13.428;2022-08-03T07:20:31;101607.44;;;27.90;38.66
46045;BME280;31781;54.094;13.428;2022-08-03T07:25:34;101615.12;;;28.17;37.85
46045;BME280;31781;54.094;13.428;2022-08-03T07:30:37;101612.31;;;28.49;36.04
46045;BME280;31781;54.094;13.428;2022-08-03T07:35:45;101607.19;;;28.83;35.74
46045;BME280;31781;54.094;13.428;2022-08-03T07:40:48;101599.19;;;29.18;36.31
46045;BME280;31781;54.094;13.428;2022-08-03T07:45:50;101603.84;;;29.49;34.19
46045;BME280;31781;54.094;13.428;2022-08-03T07:50:58;101596.03;;;29.82;33.58
46045;BME280;31781;54.094;13.428;2022-08-03T07:56:01;101596.97;;;30.14;34.66
46045;BME280;31781;54.094;13.428;2022-08-03T08:01:11;101602.16;;;30.42;32.38
46045;BME280;31781;54.094;13.428;2022-08-03T08:06:20;101589.25;;;30.72;33.26
46045;BME280;31781;54.094;13.428;2022-08-03T08:11:23;101602.31;;;31.08;33.97
46045;BME280;31781;54.094;13.428;2022-08-03T08:16:26;101593.28;;;31.36;31.81
46045;BME280;31781;54.094;13.428;2022-08-03T08:21:34;101588.53;;;31.71;31.87
46045;BME280;31781;54.094;13.428;2022-08-03T08:26:57;101592.66;;;32.08;32.84
46045;BME280;31781;54.094;13.428;2022-08-03T08:31:59;101593.28;;;32.40;30.40
46045;BME280;31781;54.094;13.428;2022-08-03T08:37:07;101587.91;;;32.64;30.34
46045;BME280;31781;54.094;13.428;2022-08-03T08:42:10;101587.47;;;32.91;31.59
46045;BME280;31781;54.094;13.428;2022-08-03T08:47:13;101587.50;;;33.20;29.36
46045;BME280;31781;54.094;13.428;2022-08-03T08:52:33;101579.63;;;33.55;31.48
46045;BME280;31781;54.094;13.428;2022-08-03T08:57:39;101589.00;;;33.68;29.73
46045;BME280;31781;54.094;13.428;2022-08-03T09:02:44;101583.56;;;33.84;27.87
46045;BME280;31781;54.094;13.428;2022-08-03T09:07:52;101584.00;;;34.06;28.04
46045;BME280;31781;54.094;13.428;2022-08-03T09:12:55;101586.94;;;34.31;29.57
46045;BME280;31781;54.094;13.428;2022-08-03T09:18:27;101589.59;;;34.60;29.93
46045;BME280;31781;54.094;13.428;2022-08-03T09:23:43;101589.41;;;34.77;30.69
46045;BME280;31781;54.094;13.428;2022-08-03T09:29:05;101574.81;;;34.99;29.67
46045;BME280;31781;54.094;13.428;2022-08-03T09:34:24;101576.69;;;35.20;27.10
46045;BME280;31781;54.094;13.428;2022-08-03T09:39:27;101574.19;;;35.42;27.87
46045;BME280;31781;54.094;13.428;2022-08-03T09:44:44;101573.44;;;35.57;27.10
46045;BME280;31781;54.094;13.428;2022-08-03T09:50:05;101565.47;;;35.87;27.84
46045;BME280;31781;54.094;13.428;2022-08-03T09:55:10;101564.69;;;36.02;28.50
46045;BME280;31781;54.094;13.428;2022-08-03T10:00:51;101558.06;;;36.26;25.41
46045;BME280;31781;54.094;13.428;2022-08-03T10:06:13;101558.97;;;36.58;27.55
46045;BME280;31781;54.094;13.428;2022-08-03T10:11:28;101557.09;;;36.81;28.65
46045;BME280;31781;54.094;13.428;2022-08-03T10:16:33;101554.16;;;36.93;27.49
46045;BME280;31781;54.094;13.428;2022-08-03T10:21:46;101553.50;;;37.00;24.64
46045;BME280;31781;54.094;13.428;2022-08-03T10:32:17;101556.81;;;37.02;27.25
46045;BME280;31781;54.094;13.428;2022-08-03T10:37:22;101540.66;;;37.02;27.24
46045;BME280;31781;54.094;13.428;2022-08-03T10:42:27;101540.69;;;37.22;25.23
46045;BME280;31781;54.094;13.428;2022-08-03T10:47:36;101524.69;;;37.48;25.15
46045;BME280;31781;54.094;13.428;2022-08-03T10:52:53;101526.78;;;37.71;25.90
46045;BME280;31781;54.094;13.428;2022-08-03T10:57:56;101526.75;;;37.90;26.47
46045;BME280;31781;54.094;13.428;2022-08-03T11:03:15;101515.06;;;38.14;26.25
46045;BME280;31781;54.094;13.428;2022-08-03T11:08:26;101495.88;;;38.30;24.47
46045;BME280;31781;54.094;13.428;2022-08-03T11:13:30;101512.34;;;38.40;24.10
46045;BME280;31781;54.094;13.428;2022-08-03T11:18:54;101510.00;;;38.46;22.84
46045;BME280;31781;54.094;13.428;2022-08-03T11:23:57;101500.88;;;38.60;26.05
46045;BME280;31781;54.094;13.428;2022-08-03T11:29:28;101502.03;;;38.81;22.55
46045;BME280;31781;54.094;13.428;2022-08-03T11:35:05;101502.00;;;39.04;25.63
46045;BME280;31781;54.094;13.428;2022-08-03T11:40:37;101501.44;;;39.21;26.01
46045;BME280;31781;54.094;13.428;2022-08-03T11:45:55;101499.25;;;39.37;24.50
46045;BME280;31781;54.094;13.428;2022-08-03T11:50:58;101501.50;;;39.55;25.30
46045;BME280;31781;54.094;13.428;2022-08-03T11:56:06;101493.59;;;39.71;22.77
46045;BME280;31781;54.094;13.428;2022-08-03T12:01:13;101496.22;;;39.86;23.89
46045;BME280;31781;54.094;13.428;2022-08-03T12:06:21;101491.72;;;39.85;21.42
46045;BME280;31781;54.094;13.428;2022-08-03T12:11:29;101490.50;;;39.86;21.45
46045;BME280;31781;54.094;13.428;2022-08-03T12:16:32;101486.91;;;39.93;23.35
46045;BME280;31781;54.094;13.428;2022-08-03T12:21:44;101487.81;;;40.01;21.01
46045;BME280;31781;54.094;13.428;2022-08-03T12:27:03;101481.31;;;40.04;23.20
46045;BME280;31781;54.094;13.428;2022-08-03T12:32:22;101472.47;;;40.12;23.37
46045;BME280;31781;54.094;13.428;2022-08-03T12:42:43;101470.38;;;40.06;21.34
46045;BME280;31781;54.094;13.428;2022-08-03T12:47:51;101470.72;;;39.67;21.06
46045;BME280;31781;54.094;13.428;2022-08-03T12:52:55;101464.19;;;40.00;21.00
46045;BME280;31781;54.094;13.428;2022-08-03T12:58:05;101473.22;;;40.06;20.78
46045;BME280;31781;54.094;13.428;2022-08-03T13:03:08;101462.72;;;40.13;22.02
46045;BME280;31781;54.094;13.428;2022-08-03T13:08:30;101469.06;;;40.00;20.00
46045;BME280;31781;54.094;13.428;2022-08-03T13:13:44;101458.81;;;39.95;21.00
46045;BME280;31781;54.094;13.428;2022-08-03T13:19:02;101460.09;;;39.98;23.34
46045;BME280;31781;54.094;13.428;2022-08-03T13:24:06;101459.09;;;39.79;22.33
46045;BME280;31781;54.094;13.428;2022-08-03T13:29:09;101465.41;;;39.66;20.75
46045;BME280;31781;54.094;13.428;2022-08-03T13:34:17;101456.00;;;39.62;20.92
46045;BME280;31781;54.094;13.428;2022-08-03T13:39:24;101449.44;;;39.54;22.34
46045;BME280;31781;54.094;13.428;2022-08-03T13:44:33;101451.03;;;39.55;20.93
46045;BME280;31781;54.094;13.428;2022-08-03T13:49:52;101445.47;;;39.66;21.82
46045;BME280;31781;54.094;13.428;2022-08-03T13:55:02;101444.22;;;39.63;23.01
46045;BME280;31781;54.094;13.428;2022-08-03T14:00:07;101443.47;;;39.70;21.32
46045;BME280;31781;54.094;13.428;2022-08-03T14:05:15;101444.78;;;39.72;21.93
46045;BME280;31781;54.094;13.428;2022-08-03T14:10:18;101438.69;;;39.77;22.50
46045;BME280;31781;54.094;13.428;2022-08-03T14:20:39;101432.38;;;39.58;23.43
46045;BME280;31781;54.094;13.428;2022-08-03T14:25:51;101432.34;;;39.54;22.10
46045;BME280;31781;54.094;13.428;2022-08-03T14:30:55;101427.97;;;39.64;22.00
46045;BME280;31781;54.094;13.428;2022-08-03T14:36:03;101430.44;;;39.65;21.29
46045;BME280;31781;54.094;13.428;2022-08-03T14:41:06;101426.44;;;39.73;22.23
46045;BME280;31781;54.094;13.428;2022-08-03T14:46:20;101432.97;;;39.74;21.07
46045;BME280;31781;54.094;13.428;2022-08-03T14:51:28;101420.69;;;39.70;21.84
46045;BME280;31781;54.094;13.428;2022-08-03T14:56:32;101421.09;;;39.68;23.34
46045;BME280;31781;54.094;13.428;2022-08-03T15:01:35;101418.72;;;39.74;21.66
46045;BME280;31781;54.094;13.428;2022-08-03T15:07:03;101417.16;;;39.76;21.68
46045;BME280;31781;54.094;13.428;2022-08-03T15:12:06;101409.38;;;39.77;23.04
46045;BME280;31781;54.094;13.428;2022-08-03T15:17:09;101396.44;;;39.83;21.04
46045;BME280;31781;54.094;13.428;2022-08-03T15:27:35;101392.91;;;40.00;23.58
46045;BME280;31781;54.094;13.428;2022-08-03T15:32:58;101392.06;;;39.96;22.61
46045;BME280;31781;54.094;13.428;2022-08-03T15:38:01;101388.44;;;40.03;21.76
46045;BME280;31781;54.094;13.428;2022-08-03T15:43:15;101377.22;;;40.17;22.59
46045;BME280;31781;54.094;13.428;2022-08-03T15:48:17;101388.31;;;40.32;22.85
46045;BME280;31781;54.094;13.428;2022-08-03T15:53:26;101387.94;;;40.34;20.88
46045;BME280;31781;54.094;13.428;2022-08-03T16:03:48;101382.97;;;40.20;23.00
46045;BME280;31781;54.094;13.428;2022-08-03T16:08:51;101375.09;;;40.10;22.07
46045;BME280;31781;54.094;13.428;2022-08-03T16:13:53;101374.19;;;40.03;20.98
46045;BME280;31781;54.094;13.428;2022-08-03T16:19:21;101374.97;;;39.96;22.06
46045;BME280;31781;54.094;13.428;2022-08-03T16:24:24;101373.28;;;39.92;22.45
46045;BME280;31781;54.094;13.428;2022-08-03T16:29:28;101379.72;;;39.81;20.97
46045;BME280;31781;54.094;13.428;2022-08-03T16:34:37;101375.00;;;39.59;21.29
46045;BME280;31781;54.094;13.428;2022-08-03T16:39:40;101375.94;;;39.33;22.45
46045;BME280;31781;54.094;13.428;2022-08-03T16:44:43;101395.50;;;39.05;22.31
46045;BME280;31781;54.094;13.428;2022-08-03T16:49:51;101392.56;;;38.72;24.14
46045;BME280;31781;54.094;13.428;2022-08-03T16:54:57;101397.44;;;38.45;25.09
46045;BME280;31781;54.094;13.428;2022-08-03T17:00:00;101391.00;;;38.25;25.48
46045;BME280;31781;54.094;13.428;2022-08-03T17:05:11;101393.56;;;38.08;25.40
46045;BME280;31781;54.094;13.428;2022-08-03T17:10:14;101397.72;;;37.91;26.02
46045;BME280;31781;54.094;13.428;2022-08-03T17:15:22;101407.53;;;37.74;26.38
46045;BME280;31781;54.094;13.428;2022-08-03T17:20:51;101408.34;;;37.52;26.97
46045;BME280;31781;54.094;13.428;2022-08-03T17:25:56;101413.50;;;37.27;27.61
46045;BME280;31781;54.094;13.428;2022-08-03T17:31:04;101421.19;;;37.08;28.13
46045;BME280;31781;54.094;13.428;2022-08-03T17:36:34;101421.03;;;36.85;28.69
46045;BME280;31781;54.094;13.428;2022-08-03T17:41:57;101430.44;;;36.54;29.43
46045;BME280;31781;54.094;13.428;2022-08-03T17:47:01;101432.75;;;36.17;31.33
46045;BME280;31781;54.094;13.428;2022-08-03T17:52:17;101422.34;;;35.78;32.34
46045;BME280;31781;54.094;13.428;2022-08-03T17:57:29;101437.06;;;35.40;31.50
46045;BME280;31781;54.094;13.428;2022-08-03T18:03:03;101439.59;;;35.05;32.12
46045;BME280;31781;54.094;13.428;2022-08-03T18:08:15;101450.66;;;34.70;32.39
46045;BME280;31781;54.094;13.428;2022-08-03T18:13:28;101456.87;;;34.39;33.13
46045;BME280;31781;54.094;13.428;2022-08-03T18:18:35;101452.09;;;34.07;34.04
46045;BME280;31781;54.094;13.428;2022-08-03T18:23:44;101446.25;;;33.79;34.45
46045;BME280;31781;54.094;13.428;2022-08-03T18:28:52;101454.13;;;33.53;34.37
46045;BME280;31781;54.094;13.428;2022-08-03T18:33:56;101461.53;;;33.24;35.79
46045;BME280;31781;54.094;13.428;2022-08-03T18:39:25;101465.38;;;32.99;36.11
46045;BME280;31781;54.094;13.428;2022-08-03T18:44:29;101470.81;;;32.75;35.44
46045;BME280;31781;54.094;13.428;2022-08-03T18:49:59;101475.56;;;32.54;37.46
46045;BME280;31781;54.094;13.428;2022-08-03T18:55:16;101478.81;;;32.26;36.43
46045;BME280;31781;54.094;13.428;2022-08-03T19:00:23;101478.56;;;32.02;36.45
46045;BME280;31781;54.094;13.428;2022-08-03T19:05:53;101487.87;;;31.77;38.98
46045;BME280;31781;54.094;13.428;2022-08-03T19:11:18;101485.59;;;31.53;38.08
46045;BME280;31781;54.094;13.428;2022-08-03T19:16:31;101495.34;;;31.30;37.85
46045;BME280;31781;54.094;13.428;2022-08-03T19:21:40;101497.13;;;31.09;40.14
46045;BME280;31781;54.094;13.428;2022-08-03T19:26:48;101495.06;;;30.83;41.54
46045;BME280;31781;54.094;13.428;2022-08-03T19:37:13;101489.06;;;30.28;39.36
46045;BME280;31781;54.094;13.428;2022-08-03T19:42:20;101497.28;;;29.94;40.98
46045;BME280;31781;54.094;13.428;2022-08-03T19:52:52;101489.50;;;29.46;40.54
46045;BME280;31781;54.094;13.428;2022-08-03T19:57:55;101486.66;;;29.24;42.05
46045;BME280;31781;54.094;13.428;2022-08-03T20:02:59;101495.41;;;29.09;45.32
46045;BME280;31781;54.094;13.428;2022-08-03T20:08:08;101493.28;;;28.92;44.76
46045;BME280;31781;54.094;13.428;2022-08-03T20:13:11;101496.59;;;28.81;43.09
46045;BME280;31781;54.094;13.428;2022-08-03T20:18:19;101496.50;;;28.72;45.85
46045;BME280;31781;54.094;13.428;2022-08-03T20:23:30;101497.81;;;28.61;45.40
46045;BME280;31781;54.094;13.428;2022-08-03T20:28:41;101490.78;;;28.50;43.83
46045;BME280;31781;54.094;13.428;2022-08-03T20:33:51;101489.31;;;28.39;46.18
46045;BME280;31781;54.094;13.428;2022-08-03T20:38:59;101500.81;;;28.24;47.29
46045;BME280;31781;54.094;13.428;2022-08-03T20:44:08;101502.75;;;28.10;45.14
46045;BME280;31781;54.094;13.428;2022-08-03T20:49:11;101497.75;;;27.93;47.95
46045;BME280;31781;54.094;13.428;2022-08-03T20:54:20;101499.66;;;27.79;48.02
46045;BME280;31781;54.094;13.428;2022-08-03T20:59:39;101495.00;;;27.74;43.79
46045;BME280;31781;54.094;13.428;2022-08-03T21:04:51;101495.84;;;27.56;45.80
46045;BME280;31781;54.094;13.428;2022-08-03T21:09:55;101501.87;;;27.44;49.60
46045;BME280;31781;54.094;13.428;2022-08-03T21:15:07;101495.69;;;27.29;48.86
46045;BME280;31781;54.094;13.428;2022-08-03T21:20:32;101499.03;;;27.12;47.68
46045;BME280;31781;54.094;13.428;2022-08-03T21:25:36;101494.09;;;26.85;50.30
46045;BME280;31781;54.094;13.428;2022-08-03T21:30:45;101493.78;;;26.63;50.89
46045;BME280;31781;54.094;13.428;2022-08-03T21:35:48;101493.97;;;26.48;48.00
46045;BME280;31781;54.094;13.428;2022-08-03T21:41:07;101496.28;;;26.41;46.73
46045;BME280;31781;54.094;13.428;2022-08-03T21:51:47;101490.03;;;26.25;47.47
46045;BME280;31781;54.094;13.428;2022-08-03T21:56:53;101493.78;;;26.10;49.13
46045;BME280;31781;54.094;13.428;2022-08-03T22:01:56;101489.16;;;26.01;51.28
46045;BME280;31781;54.094;13.428;2022-08-03T22:07:06;101501.53;;;25.90;52.77
46045;BME280;31781;54.094;13.428;2022-08-03T22:12:09;101489.56;;;25.84;49.68
46045;BME280;31781;54.094;13.428;2022-08-03T22:17:14;101504.13;;;25.76;55.12
46045;BME280;31781;54.094;13.428;2022-08-03T22:22:44;101501.47;;;25.61;53.49
46045;BME280;31781;54.094;13.428;2022-08-03T22:27:58;101497.06;;;25.50;50.51
46045;BME280;31781;54.094;13.428;2022-08-03T22:38:35;101499.09;;;25.39;49.42
46045;BME280;31781;54.094;13.428;2022-08-03T22:43:57;101500.03;;;25.25;50.35
46045;BME280;31781;54.094;13.428;2022-08-03T22:49:05;101498.78;;;25.07;52.52
46045;BME280;31781;54.094;13.428;2022-08-03T22:54:09;101506.34;;;24.96;55.04
46045;BME280;31781;54.094;13.428;2022-08-03T22:59:18;101501.09;;;24.90;56.71
46045;BME280;31781;54.094;13.428;2022-08-03T23:04:43;101501.94;;;24.85;54.08
46045;BME280;31781;54.094;13.428;2022-08-03T23:15:06;101515.31;;;24.73;52.56
46045;BME280;31781;54.094;13.428;2022-08-03T23:20:12;101512.59;;;24.58;53.22
46045;BME280;31781;54.094;13.428;2022-08-03T23:25:15;101515.41;;;24.48;56.33
46045;BME280;31781;54.094;13.428;2022-08-03T23:35:44;101509.59;;;24.39;52.11
46045;BME280;31781;54.094;13.428;2022-08-03T23:41:07;101506.31;;;24.27;54.68
46045;BME280;31781;54.094;13.428;2022-08-03T23:46:11;101520.22;;;24.17;56.42
46045;BME280;31781;54.094;13.428;2022-08-03T23:51:30;101520.78;;;24.09;57.13
46045;BME280;31781;54.094;13.428;2022-08-03T23:56:44;101518.56;;;24.01;53.72
